Time;durP1;ratioP1;P1;durP2;ratioP2;P2;SDS_P1;SDS_P2;PMS_P1;PMS_P2;Temp;Humidity;BMP_temperature;BMP_pressure;BME280_temperature;BME280_humidity;BME280_pressure;Samples;Min_cycle;Max_cycle;Signal;HPM_P1;HPM_P2
2021/12/21 00:00:41;;;;;;;40.20;24.02;;;;;;;5.87;68.78;101970.78;4986286;28;20046;-66
2021/12/21 00:03:08;;;;;;;42.38;23.20;;;;;;;5.88;69.16;101967.28;4993523;28;20384;-67
2021/12/21 00:05:36;;;;;;;42.25;25.73;;;;;;;5.89;69.14;101964.66;4993064;28;20078;-70
2021/12/21 00:08:08;;;;;;;41.63;23.17;;;;;;;5.92;68.98;101978.50;4992769;28;20065;-66
2021/12/21 00:10:35;;;;;;;39.20;23.45;;;;;;;5.90;69.14;101970.72;4991827;28;20133;-70
2021/12/21 00:13:09;;;;;;;39.63;22.92;;;;;;;5.89;69.15;101975.06;4992325;28;20054;-66
2021/12/21 00:21:24;;;;;;;41.28;22.83;;;;;;;5.88;69.34;101982.91;4980784;28;20058;-67
2021/12/21 00:23:57;;;;;;;40.88;23.08;;;;;;;5.90;69.57;101981.13;4992595;28;20050;-66
2021/12/21 00:26:24;;;;;;;38.97;23.02;;;;;;;5.92;69.30;101974.16;4991889;28;20039;-66
2021/12/21 00:31:18;;;;;;;39.17;22.02;;;;;;;5.95;69.39;101974.09;4992671;28;20491;-67
2021/12/21 00:33:47;;;;;;;38.55;21.75;;;;;;;5.96;69.57;101977.56;4992711;28;20042;-66
2021/12/21 00:36:17;;;;;;;36.70;20.88;;;;;;;5.96;69.51;101977.56;4992383;28;20144;-66
2021/12/21 00:38:48;;;;;;;36.72;20.65;;;;;;;5.96;69.62;101982.78;4992609;28;20046;-69
2021/12/21 00:41:17;;;;;;;39.45;22.02;;;;;;;5.95;69.73;101987.13;4991663;28;20046;-69
2021/12/21 00:43:44;;;;;;;40.63;22.10;;;;;;;5.96;69.79;101995.81;4992550;28;20089;-67
2021/12/21 00:46:12;;;;;;;38.53;21.95;;;;;;;5.96;69.72;102001.88;4992732;28;20050;-66
2021/12/21 00:48:47;;;;;;;39.83;21.90;;;;;;;5.95;69.95;101994.94;4992398;28;20047;-67
2021/12/21 00:51:15;;;;;;;36.20;21.63;;;;;;;5.94;69.89;101998.44;4992569;28;20100;-66
2021/12/21 00:53:42;;;;;;;37.38;20.90;;;;;;;5.92;69.81;101992.41;4992043;28;20051;-70
2021/12/21 00:56:09;;;;;;;39.45;21.88;;;;;;;5.92;69.80;101992.41;4992152;28;20046;-67
2021/12/21 00:58:36;;;;;;;35.15;20.23;;;;;;;5.91;69.73;102006.31;4992016;28;20045;-70
2021/12/21 01:01:05;;;;;;;36.30;20.70;;;;;;;5.93;69.73;102006.25;4992283;28;20458;-66
2021/12/21 01:03:41;;;;;;;33.65;21.25;;;;;;;5.94;69.72;102010.59;4992569;28;20058;-70
2021/12/21 01:06:15;;;;;;;;;;;;;;;5.91;69.70;102008.91;4992655;28;20054;-69
2021/12/21 01:09:10;;;;;;;33.28;20.35;;;;;;;5.92;69.65;102015.84;4992179;28;19925;-66
2021/12/21 01:11:43;;;;;;;33.72;19.50;;;;;;;5.94;69.86;102015.81;4992307;28;20050;-69
2021/12/21 01:19:37;;;;;;;35.92;20.60;;;;;;;5.73;69.97;102012.69;4992252;28;20466;-69
2021/12/21 01:27:15;;;;;;;31.90;19.45;;;;;;;5.75;69.84;102013.50;4995808;28;20145;-67
2021/12/21 01:32:27;;;;;;;31.88;19.67;;;;;;;5.69;69.57;102011.84;4994880;28;20053;-67
2021/12/21 01:35:04;;;;;;;31.58;19.48;;;;;;;5.68;69.95;102007.53;4995260;28;20066;-70
2021/12/21 01:40:10;;;;;;;28.65;18.83;;;;;;;5.67;69.77;102013.63;4995373;28;20047;-66
2021/12/21 01:43:09;;;;;;;29.60;19.33;;;;;;;5.68;69.88;102006.69;4995652;28;20042;-68
2021/12/21 01:51:07;;;;;;;;;;;;;;;5.62;69.73;102015.44;4994885;28;20382;-67
2021/12/21 01:53:35;;;;;;;31.85;19.52;;;;;;;5.65;69.78;102014.53;4995271;28;20001;-69
2021/12/21 01:56:04;;;;;;;32.53;19.45;;;;;;;5.63;69.53;102013.72;4995293;28;20058;-67
2021/12/21 01:58:33;;;;;;;29.08;18.80;;;;;;;5.62;69.89;102015.44;4981440;28;20668;-67
2021/12/21 02:01:01;;;;;;;29.33;17.80;;;;;;;5.63;69.80;102016.31;4995131;28;20042;-68
2021/12/21 02:03:28;;;;;;;29.75;18.15;;;;;;;5.63;69.65;102018.91;4995280;28;20133;-69
2021/12/21 02:05:55;;;;;;;29.65;18.60;;;;;;;5.61;69.75;102016.34;4993997;28;20046;-67
2021/12/21 02:08:22;;;;;;;32.85;19.83;;;;;;;5.59;69.85;102007.69;4995192;28;20060;-67
2021/12/21 02:10:49;;;;;;;32.47;20.27;;;;;;;5.58;69.95;102012.91;4994957;28;20053;-69
2021/12/21 02:13:16;;;;;;;29.65;19.08;;;;;;;5.56;69.74;102011.19;4994959;28;20065;-67
2021/12/21 02:15:42;;;;;;;29.15;19.77;;;;;;;5.60;69.98;102013.72;4994962;28;20046;-69
2021/12/21 02:20:54;;;;;;;30.05;19.55;;;;;;;5.60;69.70;102004.19;4994810;28;20125;-67
2021/12/21 02:23:30;;;;;;;29.38;19.23;;;;;;;5.56;69.61;101995.56;4993812;28;20049;-69
2021/12/21 02:26:10;;;;;;;27.95;18.65;;;;;;;5.57;69.83;101999.03;4994577;28;20506;-70
2021/12/21 02:28:58;;;;;;;30.63;19.25;;;;;;;5.53;69.80;102003.41;4994722;28;20399;-67
2021/12/21 02:31:26;;;;;;;30.02;19.65;;;;;;;5.50;69.64;102008.69;4994238;28;20042;-67
2021/12/21 02:33:54;;;;;;;30.90;20.13;;;;;;;5.49;70.05;102011.31;4994633;28;20046;-70
2021/12/21 02:36:21;;;;;;;30.98;18.92;;;;;;;5.49;70.18;102006.09;4994146;28;20057;-67
2021/12/21 02:38:48;;;;;;;32.30;19.58;;;;;;;5.46;70.28;102009.63;4993574;28;20042;-66
2021/12/21 02:41:14;;;;;;;33.58;19.92;;;;;;;5.51;69.95;102004.31;4994522;28;20046;-68
2021/12/21 02:43:41;;;;;;;34.60;21.20;;;;;;;5.51;69.92;102005.19;4994503;28;20046;-69
2021/12/21 02:46:09;;;;;;;32.83;19.15;;;;;;;5.53;70.04;102003.41;4994477;28;20046;-66
2021/12/21 02:48:35;;;;;;;33.63;19.02;;;;;;;5.54;69.87;102002.53;4993320;28;20074;-70
2021/12/21 02:51:03;;;;;;;32.78;19.45;;;;;;;5.55;70.08;101996.44;4993528;28;20821;-67
2021/12/21 02:53:29;;;;;;;34.30;20.17;;;;;;;5.55;69.99;101996.44;4992342;28;20046;-69
2021/12/21 02:55:56;;;;;;;32.13;19.48;;;;;;;5.55;70.00;101991.25;4993947;28;20046;-67
2021/12/21 02:58:23;;;;;;;31.35;19.20;;;;;;;5.57;70.06;101996.41;4993944;28;20549;-67
2021/12/21 03:00:52;;;;;;;34.00;21.25;;;;;;;5.57;69.81;101996.41;4994073;28;20042;-67
2021/12/21 03:03:20;;;;;;;34.30;20.95;;;;;;;5.57;69.93;101993.81;4994216;28;20050;-68
2021/12/21 03:05:52;;;;;;;33.05;19.27;;;;;;;5.56;70.10;101990.38;4993813;28;20434;-70
2021/12/21 03:08:23;;;;;;;33.05;20.55;;;;;;;5.56;70.07;101994.69;4993145;28;20046;-67
2021/12/21 03:11:07;;;;;;;34.25;19.77;;;;;;;5.59;69.83;101994.66;4993616;28;20054;-67
2021/12/21 03:16:20;;;;;;;37.30;21.67;;;;;;;5.53;70.09;101995.59;4993831;28;20050;-69
2021/12/21 03:18:47;;;;;;;31.90;19.73;;;;;;;5.53;70.04;101999.97;4993667;28;20066;-67
2021/12/21 03:21:14;;;;;;;35.20;20.80;;;;;;;5.52;70.32;101999.13;4993577;28;20125;-66
2021/12/21 03:23:41;;;;;;;33.55;20.38;;;;;;;5.53;70.27;102000.81;4993615;28;20491;-67
2021/12/21 03:26:07;;;;;;;34.72;20.95;;;;;;;5.53;70.24;101989.53;4992442;28;20134;-66
2021/12/21 03:28:34;;;;;;;29.83;19.15;;;;;;;5.54;70.10;101991.28;4993762;28;20039;-67
2021/12/21 03:31:02;;;;;;;31.75;18.70;;;;;;;5.54;70.07;101986.91;4993531;28;20049;-67
2021/12/21 03:33:29;;;;;;;30.60;19.15;;;;;;;5.53;70.24;101993.00;4993554;28;20046;-68
2021/12/21 03:35:56;;;;;;;31.92;19.80;;;;;;;5.55;70.24;101993.00;4993111;28;20052;-67
2021/12/21 03:38:22;;;;;;;31.92;19.52;;;;;;;5.54;70.17;101992.13;4993205;28;20134;-67
2021/12/21 03:40:49;;;;;;;35.58;18.92;;;;;;;5.55;70.23;102000.81;4993259;28;20477;-67
2021/12/21 03:43:16;;;;;;;29.90;18.20;;;;;;;5.54;70.43;102004.28;4992190;28;20057;-70
2021/12/21 03:45:52;;;;;;;28.38;17.92;;;;;;;5.56;70.23;102002.50;4993319;28;20053;-66
2021/12/21 03:48:18;;;;;;;28.63;18.13;;;;;;;5.55;70.37;102000.81;4992702;28;20105;-66
2021/12/21 03:50:45;;;;;;;27.45;17.48;;;;;;;5.55;70.45;101999.06;4993125;28;20046;-67
2021/12/21 03:53:12;;;;;;;28.77;17.85;;;;;;;5.55;70.30;101993.00;4993016;28;20384;-67
2021/12/21 03:55:38;;;;;;;26.17;17.05;;;;;;;5.55;70.46;101991.25;4993190;28;20407;-67
2021/12/21 03:58:05;;;;;;;25.85;16.75;;;;;;;5.58;70.30;101992.09;4993106;28;20046;-67
2021/12/21 04:00:32;;;;;;;27.00;17.48;;;;;;;5.58;70.30;101990.34;4991817;28;20052;-67
2021/12/21 04:02:59;;;;;;;25.20;15.20;;;;;;;5.60;70.29;101988.56;4989758;28;20506;-68
2021/12/21 04:05:26;;;;;;;20.02;12.27;;;;;;;5.63;70.33;101985.91;4989632;28;20591;-69
2021/12/21 04:07:55;;;;;;;15.85;10.13;;;;;;;5.68;70.08;101986.69;4989210;28;20050;-68
2021/12/21 04:10:22;;;;;;;10.95;7.32;;;;;;;5.73;69.90;101981.41;4989754;28;20047;-69
2021/12/21 04:12:48;;;;;;;7.70;5.93;;;;;;;5.79;69.49;101986.53;4989445;28;20054;-67
2021/12/21 04:15:17;;;;;;;5.07;3.38;;;;;;;5.89;68.77;101987.22;4989796;28;20050;-69
2021/12/21 04:17:44;;;;;;;5.45;3.45;;;;;;;5.98;67.90;101983.59;4988385;28;20133;-67
2021/12/21 04:20:11;;;;;;;4.60;3.30;;;;;;;6.04;67.47;101976.59;4989519;28;20050;-66
2021/12/21 04:22:38;;;;;;;4.93;3.30;;;;;;;6.12;66.66;101997.28;4989070;28;20046;-67
2021/12/21 04:25:06;;;;;;;4.38;3.05;;;;;;;6.18;66.24;101983.28;4989386;28;20483;-68
2021/12/21 04:27:33;;;;;;;4.78;3.10;;;;;;;6.22;65.81;101990.16;4989508;28;20057;-67
2021/12/21 04:29:59;;;;;;;4.82;3.05;;;;;;;6.24;65.40;101992.75;4989361;28;20054;-67
2021/12/21 04:32:26;;;;;;;5.10;3.00;;;;;;;6.27;64.90;102000.50;4988104;28;20046;-67
2021/12/21 04:34:53;;;;;;;3.80;2.72;;;;;;;6.28;64.74;101995.25;4988922;28;20077;-68
2021/12/21 04:37:22;;;;;;;5.28;3.50;;;;;;;6.29;64.66;101994.38;4989189;28;20498;-68
2021/12/21 04:40:12;;;;;;;4.43;2.80;;;;;;;6.31;64.23;101991.72;4989214;28;20058;-67
2021/12/21 04:42:38;;;;;;;7.63;3.83;;;;;;;6.32;64.30;101994.34;4989418;28;20064;-67
2021/12/21 04:45:06;;;;;;;6.15;3.63;;;;;;;6.33;64.04;101989.97;4989199;28;20078;-69
2021/12/21 04:47:32;;;;;;;20.98;12.80;;;;;;;6.18;64.49;101991.09;4989454;28;20065;-67
2021/12/21 04:49:59;;;;;;;24.52;15.05;;;;;;;6.06;65.17;101997.41;4988137;28;20121;-70
2021/12/21 04:52:26;;;;;;;22.10;15.57;;;;;;;5.96;65.78;101994.06;4988695;28;20059;-67
2021/12/21 04:54:54;;;;;;;25.52;17.13;;;;;;;5.93;65.90;101999.34;4988837;28;20054;-67
2021/12/21 04:57:22;;;;;;;23.38;15.98;;;;;;;5.87;66.24;101999.44;4989209;28;20543;-67
2021/12/21 04:59:48;;;;;;;25.95;17.00;;;;;;;5.83;66.63;102006.44;4989827;28;20501;-67
2021/12/21 05:02:15;;;;;;;24.42;16.52;;;;;;;5.80;66.96;102006.50;4993360;28;20051;-67
2021/12/21 05:04:42;;;;;;;25.75;16.75;;;;;;;5.77;67.12;102006.53;4992154;28;20070;-68
2021/12/21 05:07:09;;;;;;;28.55;17.00;;;;;;;5.72;67.32;102011.78;4992943;28;20513;-67
2021/12/21 05:09:44;;;;;;;24.08;16.10;;;;;;;5.73;67.48;102012.69;4992831;28;20410;-67
2021/12/21 05:12:12;;;;;;;25.55;16.25;;;;;;;5.73;67.40;102020.50;4993026;28;20384;-69
2021/12/21 05:14:39;;;;;;;24.10;15.50;;;;;;;5.72;67.65;102017.00;4992887;28;20402;-67
2021/12/21 05:17:06;;;;;;;27.42;17.15;;;;;;;5.71;67.70;102017.03;4992645;28;20050;-66
2021/12/21 05:19:33;;;;;;;25.90;16.50;;;;;;;5.69;67.71;102024.03;4992569;28;20101;-67
2021/12/21 05:21:59;;;;;;;22.52;15.30;;;;;;;5.69;67.91;102024.03;4991625;28;20133;-69
2021/12/21 05:24:26;;;;;;;23.92;15.88;;;;;;;5.64;68.18;102031.06;4992605;28;20046;-67
2021/12/21 05:26:53;;;;;;;21.20;14.77;;;;;;;5.63;68.35;102038.00;4992451;28;20049;-67
2021/12/21 05:29:20;;;;;;;26.42;15.45;;;;;;;5.62;68.17;102038.88;4992662;28;20084;-68
2021/12/21 05:31:46;;;;;;;23.08;15.02;;;;;;;5.55;68.60;102043.31;4979065;28;20058;-69
2021/12/21 05:34:13;;;;;;;22.70;16.25;;;;;;;5.55;68.41;102039.88;4992479;28;20086;-69
2021/12/21 05:36:40;;;;;;;23.90;16.10;;;;;;;5.54;68.41;102040.75;4991996;28;20470;-67
2021/12/21 05:39:16;;;;;;;23.80;15.55;;;;;;;5.54;68.64;102040.75;4991498;28;20052;-67
2021/12/21 05:41:54;;;;;;;22.83;15.82;;;;;;;5.54;68.77;102048.56;4992009;28;20691;-67
2021/12/21 05:44:23;;;;;;;23.50;15.63;;;;;;;5.54;68.60;102052.00;4992449;28;20046;-67
2021/12/21 05:46:53;;;;;;;24.58;15.35;;;;;;;5.51;68.54;102054.66;4991876;28;20054;-67
2021/12/21 05:49:20;;;;;;;26.85;16.83;;;;;;;5.54;68.63;102056.38;4992220;28;20046;-69
2021/12/21 05:51:47;;;;;;;23.75;15.45;;;;;;;5.52;68.68;102058.13;4991955;28;20046;-67
2021/12/21 05:54:18;;;;;;;22.38;14.57;;;;;;;5.53;68.84;102052.88;4991430;28;20064;-67
2021/12/21 05:56:45;;;;;;;23.88;15.00;;;;;;;5.54;68.87;102058.97;4992162;28;20491;-67
2021/12/21 05:59:12;;;;;;;24.10;15.65;;;;;;;5.57;68.65;102058.91;4991764;28;20133;-63
2021/12/21 06:01:38;;;;;;;25.00;14.82;;;;;;;5.56;68.76;102057.19;4992057;28;20077;-64
2021/12/21 06:04:05;;;;;;;23.52;15.90;;;;;;;5.55;68.76;102058.09;4991827;28;20228;-63
2021/12/21 06:06:33;;;;;;;26.08;15.50;;;;;;;5.55;68.80;102058.09;4991891;28;20046;-63
2021/12/21 06:09:08;;;;;;;24.35;15.43;;;;;;;5.55;68.64;102058.94;4991768;28;20059;-62
2021/12/21 06:25:41;;;;;;;21.50;14.90;;;;;;;5.54;68.50;102059.81;5004233;28;20065;-63
2021/12/21 06:28:11;;;;;;;19.17;13.38;;;;;;;5.53;68.51;102058.09;5009021;28;20133;-63
2021/12/21 06:30:40;;;;;;;20.23;14.25;;;;;;;5.53;68.50;102057.25;5010928;28;20133;-63
2021/12/21 06:33:08;;;;;;;21.27;14.63;;;;;;;5.52;68.58;102059.00;5010724;28;20050;-63
2021/12/21 06:35:36;;;;;;;22.02;14.70;;;;;;;5.52;68.72;102065.94;5010856;28;20494;-63
2021/12/21 06:38:03;;;;;;;21.67;14.88;;;;;;;5.52;68.61;102071.13;5010644;28;20073;-63
2021/12/21 06:40:31;;;;;;;21.30;14.35;;;;;;;5.51;68.42;102069.41;5005513;28;20048;-64
2021/12/21 06:43:01;;;;;;;24.33;15.52;;;;;;;5.49;68.60;102071.19;5008539;28;20049;-64
2021/12/21 06:53:38;;;;;;;22.88;14.68;;;;;;;5.43;68.47;102072.13;4990911;28;20057;-58
2021/12/21 06:56:06;;;;;;;24.63;15.60;;;;;;;5.40;68.86;102070.41;4998749;28;20133;-63
2021/12/21 06:58:33;;;;;;;24.70;15.70;;;;;;;5.40;68.67;102074.78;4999844;28;20068;-63
2021/12/21 07:01:01;;;;;;;24.45;16.73;;;;;;;5.38;68.90;102074.81;5006431;28;20129;-63
2021/12/21 07:03:28;;;;;;;26.92;16.27;;;;;;;5.40;68.78;102075.63;5006933;28;20057;-63
2021/12/21 07:06:00;;;;;;;23.85;16.58;;;;;;;5.41;68.93;102081.72;5005253;28;20408;-63
2021/12/21 07:08:29;;;;;;;26.92;17.38;;;;;;;5.40;69.03;102079.97;5007598;28;20042;-63
2021/12/21 21:39:09;;;;;;;23.77;13.65;;;;;;;7.25;61.63;102056.81;5037307;28;20388;-67
2021/12/21 21:41:36;;;;;;;23.95;14.73;;;;;;;7.19;62.84;102056.06;5037242;28;20060;-67
2021/12/21 21:44:04;;;;;;;23.25;13.15;;;;;;;7.12;63.51;102051.00;5037398;28;20045;-67
2021/12/21 21:46:31;;;;;;;19.65;12.93;;;;;;;7.07;64.20;102061.53;5030509;28;20411;-67
2021/12/21 21:48:58;;;;;;;20.73;12.85;;;;;;;7.03;64.34;102055.56;5024822;28;20422;-67
2021/12/21 21:51:24;;;;;;;19.35;11.52;;;;;;;7.04;64.47;102066.84;5025505;28;20491;-66
2021/12/21 21:53:51;;;;;;;20.25;13.20;;;;;;;7.04;64.41;102053.78;5025518;28;20489;-67
2021/12/21 21:56:20;;;;;;;19.88;12.70;;;;;;;7.02;64.35;102056.44;5024211;28;20049;-67
2021/12/21 21:58:51;;;;;;;22.63;13.95;;;;;;;7.04;64.49;102059.00;5035253;28;20387;-67
2021/12/21 22:01:24;;;;;;;23.25;14.70;;;;;;;7.06;64.23;102070.28;5039874;28;20045;-71
2021/12/21 22:03:51;;;;;;;24.35;14.73;;;;;;;7.04;64.46;102069.44;5025336;28;20045;-68
2021/12/21 22:06:19;;;;;;;26.27;15.02;;;;;;;7.03;64.51;102078.16;5023917;28;20051;-70
2021/12/21 22:08:47;;;;;;;31.45;16.58;;;;;;;7.04;64.73;102085.09;5025119;28;20060;-68
2021/12/21 22:11:14;;;;;;;29.75;18.25;;;;;;;7.05;64.49;102080.72;5038003;28;20045;-68
2021/12/21 22:13:41;;;;;;;31.80;17.38;;;;;;;7.05;64.63;102079.00;5025388;28;20049;-67
2021/12/21 22:16:08;;;;;;;26.80;16.08;;;;;;;7.06;64.60;102083.34;5039120;28;20050;-67
2021/12/21 22:18:35;;;;;;;30.30;17.17;;;;;;;7.06;64.96;102083.34;5043695;28;20078;-67
2021/12/21 22:21:04;;;;;;;27.75;16.30;;;;;;;7.07;64.75;102078.97;5033683;28;20116;-70
2021/12/21 22:23:36;;;;;;;28.02;16.67;;;;;;;7.06;64.95;102078.13;5012828;28;20046;-68
2021/12/21 22:26:03;;;;;;;27.20;16.83;;;;;;;7.07;64.92;102089.41;5025051;28;20057;-68
2021/12/21 22:28:31;;;;;;;27.63;17.25;;;;;;;7.06;64.96;102091.16;5030195;28;20520;-70
2021/12/21 22:31:04;;;;;;;29.73;18.45;;;;;;;7.07;65.14;102087.63;5031562;28;20119;-68
2021/12/21 22:33:32;;;;;;;29.90;16.83;;;;;;;7.06;65.29;102083.34;5035663;28;20060;-67
2021/12/21 22:36:00;;;;;;;30.90;18.38;;;;;;;7.05;65.40;102081.63;5024863;28;20096;-68
2021/12/21 22:38:27;;;;;;;32.45;18.33;;;;;;;7.00;65.54;102081.69;5040338;28;20044;-68
2021/12/21 22:40:54;;;;;;;26.77;16.90;;;;;;;7.04;65.66;102077.28;5062689;28;20044;-68
2021/12/21 22:43:21;;;;;;;31.02;18.80;;;;;;;7.04;65.76;102077.28;5061096;28;20049;-68
2021/12/21 22:45:48;;;;;;;27.48;16.98;;;;;;;7.04;65.83;102082.50;5063067;28;20349;-68
2021/12/21 22:48:19;;;;;;;29.60;17.77;;;;;;;7.07;65.88;102078.97;5047010;28;20045;-68
2021/12/21 22:50:46;;;;;;;27.58;16.88;;;;;;;7.06;65.99;102079.84;5037399;28;20044;-67
2021/12/21 22:53:13;;;;;;;29.73;17.10;;;;;;;7.04;65.92;102085.09;5040126;28;20490;-68
2021/12/21 22:55:40;;;;;;;31.67;17.35;;;;;;;7.08;65.91;102086.75;5047900;28;20049;-68
2021/12/21 22:58:09;;;;;;;28.25;17.45;;;;;;;7.08;65.75;102085.91;5038183;28;20489;-68
2021/12/21 23:00:42;;;;;;;25.27;16.77;;;;;;;7.09;65.96;102077.19;5048252;28;20044;-67
2021/12/21 23:03:09;;;;;;;28.60;16.67;;;;;;;7.07;65.80;102085.03;5026345;28;20378;-67
2021/12/21 23:05:36;;;;;;;26.13;16.33;;;;;;;7.07;65.88;102078.97;5049159;28;20052;-66
2021/12/21 23:08:03;;;;;;;25.95;16.38;;;;;;;7.07;65.93;102084.19;5042407;28;20046;-70
2021/12/21 23:10:30;;;;;;;26.70;16.30;;;;;;;7.06;65.74;102079.84;5031259;28;20449;-66
2021/12/21 23:12:57;;;;;;;25.17;14.95;;;;;;;7.06;65.70;102079.84;5043185;28;20056;-66
2021/12/21 23:15:24;;;;;;;26.77;15.95;;;;;;;7.06;65.67;102085.06;5031214;28;20049;-66
2021/12/21 23:17:50;;;;;;;27.25;16.20;;;;;;;7.06;65.64;102083.34;5030633;28;20050;-70
2021/12/21 23:20:18;;;;;;;29.40;17.02;;;;;;;7.07;65.71;102084.19;5031042;28;20053;-67
2021/12/21 23:22:45;;;;;;;29.55;17.13;;;;;;;7.05;65.82;102084.22;5029161;28;20041;-67
2021/12/21 23:25:12;;;;;;;31.88;18.15;;;;;;;7.05;65.82;102084.22;5030691;28;20049;-67
2021/12/21 23:27:39;;;;;;;29.52;18.42;;;;;;;7.05;65.88;102086.84;5042899;28;20053;-68
2021/12/21 23:30:07;;;;;;;28.05;17.63;;;;;;;7.05;65.87;102081.63;5042799;28;20045;-67
2021/12/21 23:32:36;;;;;;;29.42;18.35;;;;;;;7.04;66.08;102082.50;5030703;28;20104;-67
2021/12/21 23:35:05;;;;;;;27.92;18.17;;;;;;;7.03;65.81;102084.25;5030221;28;20041;-66
2021/12/21 23:37:32;;;;;;;27.92;18.10;;;;;;;7.05;66.18;102088.56;5030508;28;20551;-66
2021/12/21 23:39:59;;;;;;;29.60;17.95;;;;;;;7.06;66.18;102083.34;5029243;28;20049;-67
2021/12/21 23:42:26;;;;;;;29.42;17.77;;;;;;;7.08;66.21;102086.75;5030603;28;20045;-66
2021/12/21 23:44:52;;;;;;;26.40;17.92;;;;;;;7.09;66.15;102085.03;5030506;28;20682;-70
2021/12/21 23:47:19;;;;;;;25.80;17.13;;;;;;;7.07;66.26;102081.56;5030458;28;20041;-67
2021/12/21 23:49:46;;;;;;;29.70;17.63;;;;;;;7.06;66.29;102082.47;5030259;28;20073;-66
2021/12/21 23:52:12;;;;;;;30.25;17.88;;;;;;;7.05;66.59;102073.78;5030090;28;20171;-67
2021/12/21 23:54:39;;;;;;;24.33;17.33;;;;;;;7.05;66.71;102078.13;5029146;28;20449;-67
2021/12/21 23:57:06;;;;;;;26.58;17.77;;;;;;;7.02;66.66;102076.44;5030061;28;20050;-67
2021/12/21 23:59:32;;;;;;;26.40;17.13;;;;;;;7.01;66.95;102077.34;5030265;28;20457;-70
